createdAt,value
2022-11-09T00:01:05.669Z,35.05
2022-11-09T00:02:07.912Z,32.35
2022-11-09T00:03:10.860Z,34.15
2022-11-09T00:04:12.833Z,33.50
2022-11-09T00:05:15.011Z,33.35
2022-11-09T00:06:17.493Z,35.13
2022-11-09T00:07:19.619Z,35.35
2022-11-09T00:08:21.707Z,35.85
2022-11-09T00:09:25.127Z,33.42
2022-11-09T00:10:28.031Z,34.03
2022-11-09T00:11:30.653Z,34.10
2022-11-09T00:12:32.616Z,34.15
2022-11-09T00:13:39.619Z,34.42
2022-11-09T00:14:42.010Z,35.58
2022-11-09T00:15:43.948Z,34.90
2022-11-09T00:16:48.705Z,34.25
2022-11-09T00:17:50.784Z,33.85
2022-11-09T00:18:53.974Z,34.58
2022-11-09T00:19:56.186Z,33.50
2022-11-09T00:20:58.555Z,34.95
2022-11-09T00:22:00.598Z,32.80
2022-11-09T00:23:06.191Z,32.80
2022-11-09T00:24:09.292Z,35.70
2022-11-09T00:25:11.318Z,33.83
2022-11-09T00:26:16.731Z,33.33
2022-11-09T00:27:18.836Z,34.47
2022-11-09T00:28:22.053Z,33.85
2022-11-09T00:29:24.180Z,34.75
2022-11-09T00:30:27.796Z,36.72
2022-11-09T00:31:29.969Z,35.17
2022-11-09T00:32:32.382Z,34.80
2022-11-09T00:33:34.573Z,32.75
2022-11-09T00:34:36.881Z,33.65
2022-11-09T00:35:40.444Z,32.72
2022-11-09T00:36:42.740Z,35.53
2022-11-09T00:37:46.091Z,31.33
2022-11-09T00:38:50.790Z,32.95
2022-11-09T00:39:52.804Z,33.83
2022-11-09T00:41:02.237Z,33.35
2022-11-09T00:42:09.611Z,33.20
2022-11-09T00:43:15.261Z,35.28
2022-11-09T00:44:18.539Z,31.25
2022-11-09T00:45:20.603Z,38.10
2022-11-09T00:46:22.851Z,39.15
2022-11-09T00:47:30.437Z,30.55
2022-11-09T00:48:33.378Z,34.72
2022-11-09T00:49:37.238Z,34.65
2022-11-09T00:50:39.572Z,35.72
2022-11-09T00:51:41.585Z,31.90
2022-11-09T00:52:43.764Z,35.38
2022-11-09T00:53:48.530Z,34.63
2022-11-09T00:54:51.882Z,36.65
2022-11-09T00:55:56.034Z,35.03
2022-11-09T00:56:58.302Z,37.25
2022-11-09T00:58:01.726Z,34.20
2022-11-09T00:59:04.856Z,35.65
2022-11-09T01:00:08.520Z,39.80
2022-11-09T01:01:13.706Z,35.08
2022-11-09T01:02:17.570Z,34.47
2022-11-09T01:03:20.907Z,38.53
2022-11-09T01:04:27.229Z,33.55
2022-11-09T01:05:29.170Z,35.58
2022-11-09T01:06:33.741Z,38.58
2022-11-09T01:07:38.460Z,34.95
2022-11-09T01:08:41.183Z,36.15
2022-11-09T01:09:44.895Z,33.92
2022-11-09T01:10:48.614Z,37.10
2022-11-09T01:11:51.623Z,36.08
2022-11-09T01:12:57.059Z,38.35
2022-11-09T01:14:00.785Z,40.10
2022-11-09T01:15:06.676Z,35.63
2022-11-09T01:16:13.138Z,34.30
2022-11-09T01:17:15.874Z,36.92
2022-11-09T01:18:20.481Z,39.22
2022-11-09T01:19:22.693Z,38.30
2022-11-09T01:20:28.071Z,35.05
2022-11-09T01:21:30.183Z,38.95
2022-11-09T01:22:36.346Z,36.35
2022-11-09T01:23:39.614Z,35.97
2022-11-09T01:24:41.684Z,36.85
2022-11-09T01:25:45.366Z,37.53
2022-11-09T01:26:49.501Z,35.63
2022-11-09T01:27:51.648Z,36.47
2022-11-09T01:28:55.069Z,33.75
2022-11-09T01:29:58.374Z,34.92
2022-11-09T01:31:05.210Z,37.03
2022-11-09T01:32:08.866Z,39.75
2022-11-09T01:33:12.359Z,36.30
2022-11-09T01:34:14.338Z,41.65
2022-11-09T01:35:17.985Z,39.95
2022-11-09T01:36:23.007Z,37.65
2022-11-09T01:37:24.984Z,35.15
2022-11-09T01:38:27.024Z,39.33
2022-11-09T01:39:28.976Z,40.78
2022-11-09T01:40:32.762Z,36.10
2022-11-09T01:41:34.833Z,37.85
2022-11-09T01:42:39.955Z,39.78
2022-11-09T01:43:42.725Z,39.90
2022-11-09T01:44:44.662Z,39.08
2022-11-09T01:46:32.187Z,37.65
2022-11-09T01:47:34.862Z,38.53
2022-11-09T01:48:47.047Z,37.70
2022-11-09T01:50:00.398Z,39.75
2022-11-09T01:51:09.487Z,36.33
2022-11-09T01:52:32.261Z,38.22
2022-11-09T01:53:39.598Z,38.60
2022-11-09T01:55:55.040Z,39.65
2022-11-09T01:57:01.475Z,37.88
2022-11-09T01:58:07.829Z,38.92
2022-11-09T01:59:14.880Z,44.35
2022-11-09T02:00:19.901Z,41.55
2022-11-09T02:01:22.687Z,40.90
2022-11-09T02:02:25.350Z,41.53
2022-11-09T02:03:36.547Z,36.60
2022-11-09T02:04:53.504Z,38.25
2022-11-09T02:06:01.746Z,37.92
2022-11-09T02:07:05.250Z,35.47
2022-11-09T02:08:08.943Z,40.60
2022-11-09T02:09:23.963Z,37.90
2022-11-09T02:11:01.469Z,39.47
2022-11-09T02:12:06.776Z,40.22
2022-11-09T02:13:12.807Z,39.85
2022-11-09T02:14:16.070Z,36.33
2022-11-09T02:15:21.895Z,39.72
2022-11-09T02:16:26.685Z,40.60
2022-11-09T02:17:29.933Z,37.53
2022-11-09T02:18:34.238Z,42.78
2022-11-09T02:19:37.159Z,39.40
2022-11-09T02:20:54.524Z,38.83
2022-11-09T02:21:59.356Z,38.15
2022-11-09T02:23:01.774Z,40.38
2022-11-09T02:24:05.301Z,39.95
2022-11-09T02:25:11.346Z,41.60
2022-11-09T02:26:30.750Z,39.53
2022-11-09T02:27:32.802Z,40.97
2022-11-09T02:28:38.602Z,43.22
2022-11-09T02:29:48.576Z,39.05
2022-11-09T02:30:54.710Z,38.33
2022-11-09T02:32:02.687Z,39.65
2022-11-09T02:33:05.935Z,38.28
2022-11-09T02:34:28.350Z,41.95
2022-11-09T02:35:30.487Z,41.05
2022-11-09T02:36:32.624Z,39.63
2022-11-09T02:37:40.614Z,41.30
2022-11-09T02:38:45.370Z,45.45
2022-11-09T02:39:50.985Z,42.85
2022-11-09T02:40:53.337Z,43.20
2022-11-09T02:42:16.950Z,42.25
2022-11-09T02:43:23.631Z,46.55
2022-11-09T02:44:31.710Z,40.65
2022-11-09T02:45:34.183Z,45.15
2022-11-09T02:46:40.518Z,43.33
2022-11-09T02:47:43.983Z,40.40
2022-11-09T02:48:46.013Z,41.38
2022-11-09T02:49:48.142Z,42.13
2022-11-09T02:50:50.220Z,40.85
2022-11-09T02:51:53.362Z,39.70
2022-11-09T02:52:55.462Z,39.22
2022-11-09T02:53:59.560Z,37.17
2022-11-09T02:55:05.146Z,38.30
2022-11-09T02:56:08.542Z,36.38
2022-11-09T02:57:11.016Z,37.95
2022-11-09T02:58:13.720Z,41.25
2022-11-09T02:59:16.264Z,39.83
2022-11-09T03:00:19.818Z,39.75
2022-11-09T03:01:22.262Z,35.20
2022-11-09T03:02:25.628Z,36.90
2022-11-09T03:03:28.419Z,34.65
2022-11-09T03:04:30.476Z,36.03
2022-11-09T03:05:32.854Z,35.10
2022-11-09T03:06:35.638Z,34.03
2022-11-09T03:07:44.000Z,37.00
2022-11-09T03:08:46.980Z,38.13
2022-11-09T03:09:52.512Z,36.03
2022-11-09T03:10:56.975Z,35.80
2022-11-09T03:12:20.428Z,35.13
2022-11-09T03:13:22.753Z,35.60
2022-11-09T03:14:25.210Z,29.65
2022-11-09T03:15:32.936Z,35.85
2022-11-09T03:16:36.285Z,36.05
2022-11-09T03:17:40.717Z,37.92
2022-11-09T03:18:42.944Z,35.30
2022-11-09T03:19:48.230Z,34.60
2022-11-09T03:20:51.055Z,36.03
2022-11-09T03:21:54.119Z,32.03
2022-11-09T03:23:00.171Z,33.75
2022-11-09T03:24:04.990Z,30.73
2022-11-09T03:25:10.394Z,30.70
2022-11-09T03:26:12.924Z,36.50
2022-11-09T03:27:15.721Z,30.08
2022-11-09T03:28:19.717Z,32.15
2022-11-09T03:29:23.290Z,31.10
2022-11-09T03:30:25.563Z,33.42
2022-11-09T03:31:28.409Z,30.40
2022-11-09T03:32:32.008Z,30.80
2022-11-09T03:33:38.360Z,28.60
2022-11-09T03:34:41.116Z,30.95
2022-11-09T03:35:44.392Z,33.53
2022-11-09T03:36:48.930Z,33.50
2022-11-09T03:37:52.507Z,35.00
2022-11-09T03:38:54.907Z,32.38
2022-11-09T03:39:57.533Z,30.52
2022-11-09T03:41:01.443Z,31.52
2022-11-09T03:42:04.719Z,26.30
2022-11-09T03:43:08.970Z,29.80
2022-11-09T03:44:11.137Z,28.90
2022-11-09T03:45:14.482Z,27.80
2022-11-09T03:46:16.513Z,27.77
2022-11-09T03:47:18.507Z,31.25
2022-11-09T03:48:20.565Z,28.75
2022-11-09T03:49:24.010Z,25.40
2022-11-09T03:50:30.939Z,31.73
2022-11-09T03:51:33.351Z,25.58
2022-11-09T03:52:35.942Z,29.20
2022-11-09T03:53:38.344Z,24.70
2022-11-09T03:54:43.402Z,27.58
2022-11-09T03:55:45.612Z,33.55
2022-11-09T03:56:47.923Z,27.63
2022-11-09T03:57:52.367Z,29.05
2022-11-09T03:58:57.912Z,25.23
2022-11-09T04:00:00.628Z,27.20
2022-11-09T04:01:03.231Z,25.02
2022-11-09T04:02:05.693Z,29.40
2022-11-09T04:03:07.844Z,31.52
2022-11-09T04:04:10.295Z,26.45
2022-11-09T04:05:12.501Z,27.67
2022-11-09T04:06:14.451Z,27.05
2022-11-09T04:07:17.978Z,31.42
2022-11-09T04:08:20.177Z,28.65
2022-11-09T04:09:22.973Z,29.50
2022-11-09T04:10:26.584Z,29.48
2022-11-09T04:11:28.579Z,27.38
2022-11-09T04:12:30.720Z,28.83
2022-11-09T04:13:32.942Z,28.73
2022-11-09T04:14:35.173Z,31.83
2022-11-09T04:15:37.216Z,33.88
2022-11-09T04:16:39.493Z,31.95
2022-11-09T04:17:41.475Z,28.63
2022-11-09T04:18:43.987Z,30.30
2022-11-09T04:19:45.997Z,27.42
2022-11-09T04:20:47.946Z,28.98
2022-11-09T04:21:52.260Z,29.13
2022-11-09T04:23:01.162Z,30.05
2022-11-09T04:24:04.993Z,30.55
2022-11-09T04:25:07.211Z,28.90
2022-11-09T04:26:09.348Z,28.55
2022-11-09T04:27:11.483Z,28.10
2022-11-09T04:28:13.702Z,26.40
2022-11-09T04:29:15.725Z,28.30
2022-11-09T04:30:17.695Z,29.48
2022-11-09T04:31:24.245Z,29.85
2022-11-09T04:32:32.027Z,31.60
2022-11-09T04:33:34.078Z,28.25
2022-11-09T04:34:37.838Z,27.25
2022-11-09T04:35:39.940Z,29.25
2022-11-09T04:36:42.106Z,29.98
2022-11-09T04:37:44.213Z,30.33
2022-11-09T04:38:46.865Z,31.70
2022-11-09T04:39:48.853Z,30.38
2022-11-09T04:40:50.942Z,30.02
2022-11-09T04:41:53.114Z,27.73
2022-11-09T04:42:55.416Z,30.33
2022-11-09T04:43:59.507Z,28.17
2022-11-09T04:45:02.854Z,27.30
2022-11-09T04:46:05.882Z,31.80
2022-11-09T04:47:07.942Z,31.23
2022-11-09T04:48:11.126Z,26.98
2022-11-09T04:49:13.482Z,31.98
2022-11-09T04:50:16.648Z,30.70
2022-11-09T04:51:18.705Z,29.75
2022-11-09T04:52:20.710Z,36.67
2022-11-09T04:53:22.787Z,29.42
2022-11-09T04:54:27.260Z,32.13
2022-11-09T04:55:29.357Z,29.05
2022-11-09T04:56:31.320Z,31.38
2022-11-09T04:57:34.235Z,30.50
2022-11-09T04:58:36.599Z,29.75
2022-11-09T04:59:39.402Z,27.25
2022-11-09T05:00:41.403Z,32.05
2022-11-09T05:01:43.365Z,28.45
2022-11-09T05:02:45.227Z,30.35
2022-11-09T05:03:47.304Z,29.27
2022-11-09T05:04:49.408Z,28.58
2022-11-09T05:05:51.492Z,27.25
2022-11-09T05:06:53.441Z,28.50
2022-11-09T05:07:55.790Z,29.90
2022-11-09T05:08:58.981Z,29.88
2022-11-09T05:10:01.003Z,29.58
2022-11-09T05:11:05.554Z,31.65
2022-11-09T05:12:07.638Z,31.35
2022-11-09T05:13:12.696Z,27.58
2022-11-09T05:14:14.740Z,32.88
2022-11-09T05:15:16.984Z,28.52
2022-11-09T05:16:19.793Z,31.58
2022-11-09T05:17:21.974Z,30.98
2022-11-09T05:18:26.262Z,30.25
2022-11-09T05:19:29.329Z,30.33
2022-11-09T05:20:31.627Z,30.23
2022-11-09T05:21:33.628Z,29.52
2022-11-09T05:22:58.716Z,29.67
2022-11-09T05:24:00.825Z,26.55
2022-11-09T05:25:03.151Z,28.33
2022-11-09T05:26:06.711Z,30.58
2022-11-09T05:27:08.842Z,26.67
2022-11-09T05:28:11.611Z,31.02
2022-11-09T05:29:13.991Z,28.42
2022-11-09T05:30:16.122Z,30.02
2022-11-09T05:31:18.223Z,28.58
2022-11-09T05:32:20.885Z,30.65
2022-11-09T05:33:24.223Z,28.27
2022-11-09T05:34:26.824Z,29.10
2022-11-09T05:35:32.352Z,27.95
2022-11-09T05:36:34.595Z,28.38
2022-11-09T05:37:39.210Z,28.00
2022-11-09T05:38:41.328Z,30.45
2022-11-09T05:39:43.331Z,29.15
2022-11-09T05:40:48.608Z,29.52
2022-11-09T05:41:50.893Z,28.90
2022-11-09T05:42:53.531Z,30.13
2022-11-09T05:43:55.626Z,30.25
2022-11-09T05:44:58.163Z,26.42
2022-11-09T05:46:07.269Z,28.08
2022-11-09T05:47:09.297Z,28.23
2022-11-09T05:48:16.536Z,25.65
2022-11-09T05:49:18.578Z,24.30
2022-11-09T05:50:20.631Z,30.40
2022-11-09T05:51:30.290Z,27.23
2022-11-09T05:52:32.255Z,28.77
2022-11-09T05:53:34.471Z,27.90
2022-11-09T05:54:36.432Z,26.52
2022-11-09T05:55:39.682Z,26.42
2022-11-09T05:56:41.714Z,25.35
2022-11-09T05:57:43.671Z,28.00
2022-11-09T05:58:45.662Z,25.73
2022-11-09T05:59:47.864Z,23.77
2022-11-09T06:00:49.846Z,23.90
2022-11-09T06:01:52.066Z,24.80
2022-11-09T06:02:54.331Z,23.13
2022-11-09T06:03:56.242Z,25.73
2022-11-09T06:04:59.489Z,26.02
2022-11-09T06:06:08.881Z,24.52
2022-11-09T06:07:11.461Z,22.92
2022-11-09T06:08:15.634Z,22.50
2022-11-09T06:09:18.673Z,22.35
2022-11-09T06:10:20.794Z,23.35
2022-11-09T06:11:24.322Z,27.45
2022-11-09T06:12:28.627Z,24.05
2022-11-09T06:13:31.165Z,24.58
2022-11-09T06:14:33.358Z,23.27
2022-11-09T06:15:36.707Z,22.15
2022-11-09T06:16:38.676Z,26.25
2022-11-09T06:17:40.627Z,23.25
2022-11-09T06:18:42.682Z,23.45
2022-11-09T06:19:44.874Z,23.48
2022-11-09T06:20:47.083Z,22.75
2022-11-09T06:21:49.138Z,23.05
2022-11-09T06:23:03.143Z,21.25
2022-11-09T06:24:06.421Z,23.17
2022-11-09T06:25:08.739Z,22.35
2022-11-09T06:26:12.514Z,22.73
2022-11-09T06:27:14.731Z,23.60
2022-11-09T06:28:17.167Z,21.58
2022-11-09T06:29:20.183Z,23.92
2022-11-09T06:30:23.458Z,23.77
2022-11-09T06:31:25.447Z,23.75
2022-11-09T06:32:28.427Z,24.05
2022-11-09T06:33:32.238Z,26.15
2022-11-09T06:34:34.303Z,25.20
2022-11-09T06:35:36.245Z,24.75
2022-11-09T06:36:38.254Z,21.98
2022-11-09T06:37:40.345Z,23.65
2022-11-09T06:38:42.730Z,23.67
2022-11-09T06:39:45.544Z,22.85
2022-11-09T06:40:51.458Z,23.10
2022-11-09T06:41:53.622Z,23.25
2022-11-09T06:43:00.647Z,22.33
2022-11-09T06:44:02.838Z,23.08
2022-11-09T06:45:05.389Z,23.85
2022-11-09T06:46:08.149Z,24.38
2022-11-09T06:47:10.267Z,20.98
2022-11-09T06:48:12.688Z,22.70
2022-11-09T06:49:14.755Z,25.20
2022-11-09T06:50:17.709Z,25.92
2022-11-09T06:51:19.818Z,24.90
2022-11-09T06:52:21.848Z,30.65
2022-11-09T06:53:24.247Z,29.75
2022-11-09T06:54:33.759Z,23.73
2022-11-09T06:55:39.101Z,24.30
2022-11-09T06:56:41.058Z,24.92
2022-11-09T06:57:43.664Z,25.23
2022-11-09T06:58:52.907Z,27.70
2022-11-09T06:59:54.966Z,23.85
2022-11-09T07:01:03.351Z,21.23
2022-11-09T07:02:05.422Z,23.90
2022-11-09T07:03:07.471Z,25.08
2022-11-09T07:04:14.280Z,23.00
2022-11-09T07:05:19.771Z,23.27
2022-11-09T07:06:24.594Z,24.90
2022-11-09T07:07:28.345Z,23.50
2022-11-09T07:08:30.562Z,24.45
2022-11-09T07:09:33.222Z,28.00
2022-11-09T07:10:36.847Z,23.70
2022-11-09T07:11:39.267Z,23.48
2022-11-09T07:12:42.424Z,26.23
2022-11-09T07:13:44.786Z,22.35
2022-11-09T07:14:46.725Z,25.30
2022-11-09T07:15:55.024Z,23.08
2022-11-09T07:16:58.447Z,23.40
2022-11-09T07:18:02.007Z,22.30
2022-11-09T07:19:04.002Z,22.67
2022-11-09T07:20:10.773Z,23.15
2022-11-09T07:21:15.092Z,28.55
2022-11-09T07:22:17.946Z,23.30
2022-11-09T07:23:20.801Z,25.48
2022-11-09T07:24:23.687Z,23.85
2022-11-09T07:25:27.512Z,26.17
2022-11-09T07:26:29.931Z,26.42
2022-11-09T07:27:31.936Z,22.50
2022-11-09T07:28:34.076Z,23.48
2022-11-09T07:29:36.058Z,24.08
2022-11-09T07:30:38.737Z,23.38
2022-11-09T07:31:40.771Z,22.58
2022-11-09T07:34:06.368Z,24.98
2022-11-09T07:35:09.958Z,22.83
2022-11-09T07:36:14.612Z,27.50
2022-11-09T07:37:23.059Z,20.88
2022-11-09T07:38:29.114Z,22.15
2022-11-09T07:39:33.694Z,26.95
2022-11-09T07:40:36.448Z,23.48
2022-11-09T07:41:40.793Z,22.80
2022-11-09T07:42:42.773Z,21.90
2022-11-09T07:43:45.243Z,23.52
2022-11-09T07:44:48.392Z,24.17
2022-11-09T07:45:50.748Z,23.27
2022-11-09T07:46:52.839Z,23.35
2022-11-09T07:47:59.065Z,24.77
2022-11-09T07:49:01.537Z,23.98
2022-11-09T07:50:07.066Z,25.05
2022-11-09T07:51:09.312Z,22.63
2022-11-09T07:52:11.233Z,23.65
2022-11-09T07:53:15.176Z,23.17
2022-11-09T07:54:17.138Z,25.65
2022-11-09T07:55:19.517Z,20.85
2022-11-09T07:56:21.489Z,23.75
2022-11-09T07:57:24.700Z,22.92
2022-11-09T07:58:26.727Z,23.55
2022-11-09T07:59:28.828Z,21.50
2022-11-09T08:00:32.637Z,21.30
2022-11-09T08:01:35.052Z,24.73
2022-11-09T08:02:37.198Z,24.20
2022-11-09T08:03:39.220Z,21.95
2022-11-09T08:04:41.268Z,23.30
2022-11-09T08:05:43.459Z,24.65
2022-11-09T08:06:45.816Z,25.88
2022-11-09T08:07:48.041Z,23.48
2022-11-09T08:08:50.147Z,21.33
2022-11-09T08:09:52.189Z,23.25
2022-11-09T08:10:57.072Z,22.63
2022-11-09T08:11:59.032Z,24.50
2022-11-09T08:13:04.006Z,22.38
2022-11-09T08:14:07.149Z,21.95
2022-11-09T08:15:11.994Z,24.23
2022-11-09T08:16:14.297Z,23.52
2022-11-09T08:17:16.568Z,26.52
2022-11-09T08:18:20.981Z,23.75
2022-11-09T08:19:23.163Z,24.05
2022-11-09T08:20:28.062Z,25.95
2022-11-09T08:21:30.062Z,28.80
2022-11-09T08:22:32.202Z,23.92
2022-11-09T08:23:36.007Z,25.40
2022-11-09T08:24:38.234Z,26.25
2022-11-09T08:25:41.554Z,24.05
2022-11-09T08:26:43.515Z,24.90
2022-11-09T08:27:46.454Z,24.83
2022-11-09T08:28:48.642Z,24.55
2022-11-09T08:29:50.664Z,26.15
2022-11-09T08:30:58.047Z,24.58
2022-11-09T08:32:00.262Z,24.90
2022-11-09T08:33:03.710Z,25.80
2022-11-09T08:34:05.928Z,25.75
2022-11-09T08:35:12.801Z,24.48
2022-11-09T08:36:17.382Z,26.38
2022-11-09T08:37:19.580Z,28.17
2022-11-09T08:38:22.361Z,26.17
2022-11-09T08:39:24.676Z,26.95
2022-11-09T08:40:26.928Z,29.75
2022-11-09T08:41:29.300Z,26.65
2022-11-09T08:42:32.613Z,26.75
2022-11-09T08:43:35.253Z,24.75
2022-11-09T08:44:37.171Z,26.77
2022-11-09T08:45:41.171Z,26.55
2022-11-09T08:46:43.379Z,27.40
2022-11-09T08:47:46.871Z,25.63
2022-11-09T08:48:48.806Z,23.17
2022-11-09T08:49:50.837Z,28.27
2022-11-09T08:50:56.068Z,28.05
2022-11-09T08:51:59.269Z,27.08
2022-11-09T08:53:02.445Z,27.40
2022-11-09T08:54:04.606Z,24.95
2022-11-09T08:55:08.903Z,25.98
2022-11-09T08:56:18.559Z,29.30
2022-11-09T08:57:23.457Z,30.50
2022-11-09T08:58:27.512Z,21.90
2022-11-09T08:59:29.834Z,25.98
2022-11-09T09:00:31.978Z,22.95
2022-11-09T09:01:38.473Z,25.85
2022-11-09T09:02:40.715Z,25.30
2022-11-09T09:03:42.906Z,24.42
2022-11-09T09:04:45.147Z,22.88
2022-11-09T09:05:47.395Z,26.30
2022-11-09T09:06:49.687Z,20.88
2022-11-09T09:07:51.861Z,20.13
2022-11-09T09:08:53.999Z,19.10
2022-11-09T09:09:57.296Z,23.92
2022-11-09T09:11:06.274Z,20.60
2022-11-09T09:12:10.564Z,21.05
2022-11-09T09:13:12.605Z,22.73
2022-11-09T09:14:15.858Z,21.33
2022-11-09T09:15:17.912Z,21.95
2022-11-09T09:16:19.962Z,22.50
2022-11-09T09:17:21.981Z,21.58
2022-11-09T09:18:24.555Z,23.30
2022-11-09T09:19:26.643Z,21.20
2022-11-09T09:20:29.250Z,18.65
2022-11-09T09:21:31.436Z,23.33
2022-11-09T09:22:35.857Z,21.33
2022-11-09T09:23:39.075Z,22.50
2022-11-09T09:24:41.347Z,20.05
2022-11-09T09:25:44.100Z,20.77
2022-11-09T09:26:46.410Z,22.33
2022-11-09T09:27:48.511Z,20.02
2022-11-09T09:28:51.822Z,24.90
2022-11-09T09:29:54.014Z,20.58
2022-11-09T09:30:59.839Z,21.88
2022-11-09T09:32:01.799Z,21.45
2022-11-09T09:33:03.950Z,21.80
2022-11-09T09:34:08.583Z,21.33
2022-11-09T09:35:10.602Z,23.52
2022-11-09T09:36:18.337Z,21.27
2022-11-09T09:37:20.331Z,20.90
2022-11-09T09:38:22.775Z,20.95
2022-11-09T09:39:25.022Z,22.35
2022-11-09T09:40:37.160Z,22.00
2022-11-09T09:42:01.475Z,20.88
2022-11-09T09:43:05.314Z,22.25
2022-11-09T09:44:14.313Z,23.10
2022-11-09T09:46:38.015Z,21.85
2022-11-09T09:48:02.756Z,23.02
2022-11-09T09:49:14.818Z,19.55
2022-11-09T09:50:27.113Z,23.77
2022-11-09T09:51:34.718Z,24.38
2022-11-09T09:53:25.477Z,23.77
2022-11-09T09:54:30.301Z,24.75
2022-11-09T09:56:40.649Z,26.77
2022-11-09T09:57:47.950Z,25.95
2022-11-09T09:58:58.204Z,25.55
2022-11-09T10:00:08.418Z,23.02
2022-11-09T10:01:50.888Z,24.50
2022-11-09T10:02:54.175Z,25.63
2022-11-09T10:03:56.902Z,27.33
2022-11-09T10:05:01.871Z,28.40
2022-11-09T10:06:09.507Z,25.10
2022-11-09T10:07:36.277Z,24.13
2022-11-09T10:08:54.613Z,27.98
2022-11-09T10:10:08.915Z,29.83
2022-11-09T10:11:50.251Z,26.65
2022-11-09T10:13:20.183Z,27.65
2022-11-09T10:14:42.868Z,26.45
2022-11-09T10:15:57.165Z,25.73
2022-11-09T10:17:14.710Z,30.88
2022-11-09T10:18:30.712Z,27.75
2022-11-09T10:19:51.387Z,25.42
2022-11-09T10:21:10.499Z,32.08
2022-11-09T10:22:45.874Z,28.90
2022-11-09T10:24:04.768Z,28.17
2022-11-09T10:26:51.467Z,26.55
2022-11-09T10:28:02.577Z,25.13
2022-11-09T10:29:26.183Z,27.67
2022-11-09T10:30:30.464Z,29.50
2022-11-09T10:31:34.779Z,29.20
2022-11-09T10:32:36.963Z,26.88
2022-11-09T10:33:39.332Z,30.58
2022-11-09T10:34:53.239Z,30.70
2022-11-09T10:36:33.270Z,28.30
2022-11-09T10:37:40.724Z,27.00
2022-11-09T10:38:47.255Z,27.17
2022-11-09T10:40:19.060Z,30.38
2022-11-09T10:41:44.389Z,28.58
2022-11-09T10:43:13.973Z,27.58
2022-11-09T10:44:34.860Z,26.50
2022-11-09T10:46:05.180Z,31.42
2022-11-09T10:47:26.619Z,29.95
2022-11-09T10:48:46.978Z,28.60
2022-11-09T10:50:14.795Z,28.80
2022-11-09T10:51:41.254Z,27.77
2022-11-09T10:53:11.322Z,26.27
2022-11-09T10:54:35.481Z,27.20
2022-11-09T10:56:04.953Z,23.60
2022-11-09T10:57:26.061Z,29.35
2022-11-09T10:58:52.023Z,25.67
2022-11-09T11:00:19.881Z,28.35
2022-11-09T11:01:40.649Z,27.75
2022-11-09T11:03:12.070Z,26.52
2022-11-09T11:04:33.194Z,26.45
2022-11-09T11:06:03.318Z,27.10
2022-11-09T11:07:25.413Z,26.27
2022-11-09T11:08:49.277Z,26.77
2022-11-09T11:10:16.197Z,27.95
2022-11-09T11:11:39.151Z,26.02
2022-11-09T11:13:02.327Z,27.48
2022-11-09T11:14:27.867Z,24.85
2022-11-09T11:15:49.385Z,25.75
2022-11-09T11:17:35.189Z,28.65
2022-11-09T11:18:57.013Z,26.58
2022-11-09T11:20:33.913Z,24.10
2022-11-09T11:22:12.663Z,25.25
2022-11-09T11:23:37.020Z,26.67
2022-11-09T11:25:10.131Z,31.90
2022-11-09T11:27:10.387Z,27.08
2022-11-09T11:28:49.402Z,27.35
2022-11-09T11:31:31.367Z,28.55
2022-11-09T11:32:52.256Z,27.48
2022-11-09T11:34:32.150Z,25.75
2022-11-09T11:36:03.958Z,25.52
2022-11-09T11:38:01.254Z,25.95
2022-11-09T11:39:31.205Z,27.55
2022-11-09T11:41:13.003Z,26.73
2022-11-09T11:42:51.967Z,28.08
2022-11-09T11:45:26.054Z,27.48
2022-11-09T11:46:47.415Z,27.40
2022-11-09T11:48:28.273Z,27.10
2022-11-09T11:49:56.672Z,26.38
2022-11-09T11:51:47.294Z,26.65
2022-11-09T11:53:10.335Z,24.35
2022-11-09T11:55:07.797Z,26.42
2022-11-09T11:56:47.511Z,26.48
2022-11-09T11:58:30.277Z,23.35
2022-11-09T11:59:53.307Z,23.15
2022-11-09T12:01:35.623Z,24.60
2022-11-09T12:03:21.045Z,22.83
2022-11-09T12:04:48.179Z,25.45
2022-11-09T12:06:30.661Z,28.13
2022-11-09T12:08:18.687Z,20.17
2022-11-09T12:09:49.385Z,22.52
2022-11-09T12:11:31.544Z,25.70
2022-11-09T12:13:06.823Z,23.98
2022-11-09T12:14:29.711Z,25.67
2022-11-09T12:16:04.504Z,25.60
2022-11-09T12:17:43.783Z,21.80
2022-11-09T12:19:27.694Z,23.67
2022-11-09T12:21:24.432Z,23.10
2022-11-09T12:22:53.586Z,24.35
2022-11-09T12:24:24.176Z,23.42
2022-11-09T12:26:24.078Z,21.75
2022-11-09T12:28:08.538Z,23.40
2022-11-09T12:29:56.917Z,23.02
2022-11-09T12:31:54.727Z,22.38
2022-11-09T12:33:44.430Z,24.15
2022-11-09T12:35:11.329Z,20.38
2022-11-09T12:36:53.488Z,22.10
2022-11-09T12:38:36.892Z,22.45
2022-11-09T12:40:21.313Z,24.60
2022-11-09T12:41:43.599Z,23.92
2022-11-09T12:43:27.407Z,23.38
2022-11-09T12:45:12.667Z,21.27
2022-11-09T12:46:40.143Z,20.73
2022-11-09T12:48:31.107Z,21.10
2022-11-09T12:49:51.824Z,21.95
2022-11-09T12:51:12.451Z,20.80
2022-11-09T12:52:33.206Z,20.73
2022-11-09T12:53:56.522Z,19.48
2022-11-09T12:55:21.595Z,18.23
2022-11-09T12:56:55.671Z,20.55
2022-11-09T12:58:26.460Z,21.67
2022-11-09T12:59:55.488Z,22.08
2022-11-09T13:01:34.619Z,25.25
2022-11-09T13:02:58.106Z,22.88
2022-11-09T13:04:21.217Z,19.88
2022-11-09T13:05:43.309Z,19.77
2022-11-09T13:07:07.315Z,20.63
2022-11-09T13:08:31.582Z,20.33
2022-11-09T13:09:57.470Z,18.58
2022-11-09T13:11:17.827Z,20.00
2022-11-09T13:12:42.931Z,20.63
2022-11-09T13:14:29.261Z,21.00
2022-11-09T13:16:33.331Z,20.35
2022-11-09T13:18:06.403Z,19.42
2022-11-09T13:19:36.159Z,22.77
2022-11-09T13:21:17.621Z,19.80
2022-11-09T13:22:57.773Z,21.40
2022-11-09T13:24:30.207Z,20.13
2022-11-09T13:26:30.812Z,21.80
2022-11-09T13:27:51.384Z,23.13
2022-11-09T13:29:30.428Z,21.40
2022-11-09T13:30:51.353Z,19.05
2022-11-09T13:32:14.380Z,20.52
2022-11-09T13:33:36.283Z,20.95
2022-11-09T13:35:01.930Z,21.35
2022-11-09T13:37:59.213Z,22.85
2022-11-09T13:39:29.846Z,19.70
2022-11-09T13:40:50.945Z,21.83
2022-11-09T13:42:31.918Z,22.27
2022-11-09T13:44:14.347Z,22.75
2022-11-09T13:45:47.368Z,19.35
2022-11-09T13:47:25.893Z,19.85
2022-11-09T13:48:49.071Z,24.20
2022-11-09T13:50:22.544Z,20.95
2022-11-09T13:51:48.224Z,22.63
2022-11-09T13:53:31.907Z,20.63
2022-11-09T13:54:54.858Z,21.13
2022-11-09T13:56:30.009Z,20.95
2022-11-09T13:57:51.919Z,23.05
2022-11-09T13:59:28.174Z,21.77
2022-11-09T14:00:49.426Z,22.10
2022-11-09T14:02:19.110Z,22.85
2022-11-09T14:03:40.152Z,20.95
2022-11-09T14:05:02.035Z,21.80
2022-11-09T14:06:23.010Z,25.23
2022-11-09T14:07:43.993Z,23.70
2022-11-09T14:09:04.811Z,27.00
2022-11-09T14:11:19.782Z,21.50
2022-11-09T14:13:07.394Z,23.52
2022-11-09T14:14:49.175Z,23.35
2022-11-09T14:16:22.443Z,23.15
2022-11-09T14:18:05.578Z,22.65
2022-11-09T14:19:58.771Z,22.63
2022-11-09T14:21:34.906Z,21.70
2022-11-09T14:22:56.022Z,23.48
2022-11-09T14:24:41.018Z,23.60
2022-11-09T14:26:20.955Z,24.88
2022-11-09T14:27:51.505Z,21.33
2022-11-09T14:29:23.616Z,26.15
2022-11-09T14:30:45.471Z,25.23
2022-11-09T14:32:37.543Z,22.90
2022-11-09T14:34:06.274Z,26.23
2022-11-09T14:36:52.843Z,25.02
2022-11-09T14:38:29.653Z,24.35
2022-11-09T14:39:52.602Z,23.85
2022-11-09T14:41:23.359Z,28.33
2022-11-09T14:42:50.029Z,24.02
2022-11-09T14:44:20.621Z,25.05
2022-11-09T14:45:53.516Z,25.08
2022-11-09T14:47:18.655Z,22.50
2022-11-09T14:48:43.278Z,31.83
2022-11-09T14:50:15.734Z,23.05
2022-11-09T14:51:40.594Z,28.13
2022-11-09T14:53:02.689Z,24.90
2022-11-09T14:54:27.463Z,30.73
2022-11-09T14:55:53.693Z,26.45
2022-11-09T14:57:16.651Z,29.35
2022-11-09T14:58:41.860Z,24.17
2022-11-09T15:00:02.731Z,24.75
2022-11-09T15:01:26.875Z,26.02
2022-11-09T15:02:47.459Z,26.85
2022-11-09T15:04:10.465Z,26.10
2022-11-09T15:05:39.931Z,27.73
2022-11-09T15:07:04.137Z,30.13
2022-11-09T15:08:25.455Z,27.35
2022-11-09T15:09:48.944Z,26.10
2022-11-09T15:11:09.971Z,26.33
2022-11-09T15:12:31.632Z,27.50
2022-11-09T15:13:52.126Z,27.63
2022-11-09T15:15:27.213Z,28.52
2022-11-09T15:16:49.197Z,25.10
2022-11-09T15:18:26.917Z,27.77
2022-11-09T15:20:00.078Z,24.67
2022-11-09T15:21:33.502Z,33.45
2022-11-09T15:22:55.754Z,27.63
2022-11-09T15:24:19.874Z,26.85
2022-11-09T15:25:43.649Z,26.67
2022-11-09T15:27:42.302Z,26.95
2022-11-09T15:29:41.262Z,29.65
2022-11-09T15:31:02.901Z,29.13